Time;durP1;ratioP1;P1;durP2;ratioP2;P2;SDS_P1;SDS_P2;PMS_P1;PMS_P2;Temp;Humidity;BMP_temperature;BMP_pressure;BME280_temperature;BME280_humidity;BME280_pressure;Samples;Min_cycle;Max_cycle;Signal;HPM_P1;HPM_P2
2023/03/08 00:00:41;;;;;;;223.53;205.73;;;;;;;-2.04;84.67;99880.19;5009650;28;20087;-71
2023/03/08 00:03:12;;;;;;;201.50;185.13;;;;;;;-2.05;84.29;99879.38;5010379;28;20135;-71
2023/03/08 00:05:38;;;;;;;219.83;200.33;;;;;;;-1.92;84.19;99881.94;5010704;28;20045;-72
2023/03/08 00:08:03;;;;;;;212.80;196.40;;;;;;;-2.00;84.11;99890.06;5003807;28;20044;-70
2023/03/08 00:10:29;;;;;;;199.63;183.23;;;;;;;-2.02;84.35;99889.47;5023781;28;20033;-73
2023/03/08 00:12:55;;;;;;;208.80;193.00;;;;;;;-1.99;84.33;99886.44;5026092;28;20038;-71
2023/03/08 00:15:20;;;;;;;201.47;185.13;;;;;;;-1.86;83.53;99876.88;4996967;28;20060;-72
2023/03/08 00:17:48;;;;;;;214.87;198.53;;;;;;;-1.98;84.12;99872.28;5008758;28;20042;-70
2023/03/08 00:20:14;;;;;;;200.50;184.17;;;;;;;-1.85;83.76;99860.13;5011864;28;20060;-71
2023/03/08 00:22:41;;;;;;;218.80;202.37;;;;;;;-2.00;84.21;99873.53;4986399;28;20907;-72
2023/03/08 00:25:08;;;;;;;201.77;185.27;;;;;;;-1.88;83.98;99871.84;5004470;28;20118;-71
2023/03/08 00:27:35;;;;;;;210.70;194.40;;;;;;;-1.81;83.70;99883.13;5011185;28;20041;-71
2023/03/08 00:30:06;;;;;;;212.10;196.03;;;;;;;-1.96;84.12;99878.16;4997107;28;20667;-72
2023/03/08 00:32:40;;;;;;;204.57;187.67;;;;;;;-2.05;84.29;99876.75;5004572;28;20056;-71
2023/03/08 00:35:06;;;;;;;213.50;197.33;;;;;;;-2.26;84.52;99877.03;4997671;28;20573;-71
2023/03/08 00:37:32;;;;;;;198.63;182.30;;;;;;;-2.19;85.15;99885.69;4978978;28;20108;-72
2023/03/08 00:40:01;;;;;;;200.53;184.37;;;;;;;-2.14;85.12;99888.50;5034532;28;20552;-71
2023/03/08 00:42:31;;;;;;;201.83;185.37;;;;;;;-1.98;84.90;99893.28;4991513;28;20491;-71
2023/03/08 00:44:57;;;;;;;213.20;197.17;;;;;;;-2.19;85.09;99890.94;5000426;28;20036;-72
2023/03/08 00:47:26;;;;;;;214.03;197.43;;;;;;;-2.26;85.63;99890.97;5009692;28;20037;-71
2023/03/08 00:49:53;;;;;;;198.90;182.60;;;;;;;-2.30;85.53;99888.97;5009813;28;20065;-71
2023/03/08 00:52:20;;;;;;;203.90;187.07;;;;;;;-2.16;85.65;99890.53;5003265;28;20044;-71
2023/03/08 00:54:46;;;;;;;203.27;186.67;;;;;;;-2.13;85.44;99902.44;4997042;28;20153;-70
2023/03/08 00:57:12;;;;;;;203.40;186.33;;;;;;;-2.14;85.43;99899.00;4993095;28;20568;-71
2023/03/08 00:59:38;;;;;;;215.57;199.17;;;;;;;-2.17;85.48;99907.28;4979373;28;20044;-72
2023/03/08 01:02:04;;;;;;;205.57;188.63;;;;;;;-2.35;85.38;99907.13;5006880;28;20498;-71
2023/03/08 01:04:33;;;;;;;203.10;186.43;;;;;;;-2.72;85.75;99912.03;4990462;28;20132;-71
2023/03/08 01:07:00;;;;;;;212.33;196.40;;;;;;;-2.97;86.32;99905.81;4995501;28;20040;-71
2023/03/08 01:09:26;;;;;;;214.80;198.70;;;;;;;-3.17;86.42;99906.59;4991698;28;20037;-72
2023/03/08 01:11:53;;;;;;;201.03;184.80;;;;;;;-3.14;87.65;99908.78;4977754;28;20589;-71
2023/03/08 01:14:19;;;;;;;200.67;184.40;;;;;;;-2.87;87.31;99890.47;5006761;28;20034;-71
2023/03/08 01:16:44;;;;;;;202.23;185.63;;;;;;;-2.64;87.34;99900.50;4994797;28;20052;-71
2023/03/08 01:19:11;;;;;;;199.13;183.23;;;;;;;-2.54;87.45;99888.63;4982162;28;20092;-71
2023/03/08 01:21:38;;;;;;;216.70;199.97;;;;;;;-2.51;87.32;99892.63;4995921;28;20045;-71
2023/03/08 01:24:05;;;;;;;201.37;185.17;;;;;;;-2.53;86.81;99900.72;4997703;28;20036;-71
2023/03/08 01:26:33;;;;;;;212.13;195.57;;;;;;;-2.58;87.18;99889.22;5026620;28;20071;-73
2023/03/08 01:28:59;;;;;;;201.17;184.97;;;;;;;-2.88;87.04;99886.25;4983753;28;20025;-72
2023/03/08 01:31:28;;;;;;;200.37;184.07;;;;;;;-3.11;87.25;99871.75;4976469;28;20699;-72
2023/03/08 01:33:58;;;;;;;211.30;195.53;;;;;;;-3.11;88.13;99886.66;5013168;28;20084;-71
2023/03/08 01:36:26;;;;;;;201.30;185.20;;;;;;;-3.25;87.71;99882.38;4999628;28;20483;-70
2023/03/08 01:38:52;;;;;;;198.07;182.30;;;;;;;-3.27;88.02;99882.59;4992149;28;20049;-71
2023/03/08 01:41:23;;;;;;;211.00;195.13;;;;;;;-3.46;87.83;99886.00;4993637;28;20037;-71
2023/03/08 01:43:49;;;;;;;205.37;189.90;;;;;;;-3.59;88.48;99884.97;5024481;28;20140;-71
2023/03/08 01:46:20;;;;;;;196.83;182.60;;;;;;;-3.59;88.78;99889.38;4993189;28;20124;-72
2023/03/08 01:48:54;;;;;;;202.30;187.43;;;;;;;-3.63;88.78;99886.38;5009129;28;20061;-71
2023/03/08 01:51:28;;;;;;;213.60;197.43;;;;;;;-3.69;88.58;99891.59;4993565;28;20131;-72
2023/03/08 01:53:56;;;;;;;210.27;194.53;;;;;;;-3.70;89.00;99888.16;4995346;28;20067;-72
2023/03/08 01:56:23;;;;;;;208.63;192.80;;;;;;;-3.75;88.96;99890.56;4974258;28;20383;-72
2023/03/08 01:58:51;;;;;;;209.60;194.07;;;;;;;-3.82;88.67;99884.50;4990300;28;20041;-71
2023/03/08 02:01:19;;;;;;;201.97;185.67;;;;;;;-3.78;89.23;99880.50;4986166;28;20048;-71
2023/03/08 02:03:46;;;;;;;210.50;194.97;;;;;;;-3.90;88.81;99887.31;4982572;28;20141;-72
2023/03/08 02:06:15;;;;;;;194.37;179.33;;;;;;;-3.95;88.91;99882.66;5006417;28;20116;-71
2023/03/08 02:08:42;;;;;;;204.03;188.97;;;;;;;-3.94;89.30;99892.09;5010611;28;20151;-70
2023/03/08 02:11:08;;;;;;;198.93;182.97;;;;;;;-3.89;89.36;99894.13;4985999;28;20782;-72
2023/03/08 02:13:38;;;;;;;197.60;181.90;;;;;;;-3.64;89.32;99876.91;4995817;28;20045;-71
2023/03/08 02:16:09;;;;;;;199.77;183.67;;;;;;;-3.66;89.40;99891.19;4996223;28;20524;-71
2023/03/08 02:18:34;;;;;;;197.07;181.67;;;;;;;-3.76;89.15;99878.50;5020876;28;20040;-70
2023/03/08 02:21:00;;;;;;;201.73;186.93;;;;;;;-3.62;89.24;99881.94;5011087;28;20038;-71
2023/03/08 02:23:26;;;;;;;208.60;192.83;;;;;;;-3.55;88.87;99874.09;4997776;28;20041;-71
2023/03/08 02:26:03;;;;;;;202.43;187.27;;;;;;;-3.32;89.36;99877.97;4990286;28;20040;-72
2023/03/08 02:28:29;;;;;;;209.30;193.70;;;;;;;-3.17;88.98;99862.06;5006506;28;20072;-71
2023/03/08 02:30:55;;;;;;;210.90;195.03;;;;;;;-3.35;88.97;99875.75;5013972;28;20091;-71
2023/03/08 02:33:22;;;;;;;199.90;184.00;;;;;;;-3.45;88.91;99869.31;5029285;28;20056;-72
2023/03/08 02:35:51;;;;;;;218.10;201.13;;;;;;;-3.35;89.46;99872.31;5009844;28;20038;-71
2023/03/08 02:38:19;;;;;;;214.93;198.80;;;;;;;-3.18;89.77;99876.19;4993370;28;20051;-71
2023/03/08 02:40:45;;;;;;;197.77;182.30;;;;;;;-2.73;89.74;99878.97;5022930;28;20049;-71
2023/03/08 02:43:10;;;;;;;230.17;211.53;;;;;;;-2.43;89.42;99879.31;5009709;28;20091;-71
2023/03/08 02:45:39;;;;;;;208.73;191.13;;;;;;;-2.17;88.63;99882.84;5006603;28;20479;-71
2023/03/08 02:48:07;;;;;;;203.23;186.10;;;;;;;-2.02;88.76;99884.22;4991040;28;20045;-73
2023/03/08 02:50:35;;;;;;;210.73;192.87;;;;;;;-1.87;88.37;99875.28;4998482;28;20061;-72
2023/03/08 02:53:02;;;;;;;202.10;185.50;;;;;;;-1.77;87.40;99875.63;4985964;28;20041;-72
2023/03/08 02:55:28;;;;;;;204.23;187.47;;;;;;;-1.73;87.10;99876.81;5012770;28;20393;-71
2023/03/08 02:57:54;;;;;;;207.27;190.27;;;;;;;-1.68;86.71;99877.00;5000239;28;20045;-72
2023/03/08 03:00:20;;;;;;;221.73;204.43;;;;;;;-1.68;86.84;99879.63;4999198;28;20038;-71
2023/03/08 03:02:46;;;;;;;228.50;210.07;;;;;;;-1.63;86.61;99879.78;4994011;28;20881;-73
2023/03/08 03:05:12;;;;;;;250.00;226.23;;;;;;;-1.60;86.75;99871.50;4993101;28;20033;-70
2023/03/08 03:07:42;;;;;;;236.73;216.40;;;;;;;-1.58;86.81;99872.09;4989251;28;20042;-72
2023/03/08 03:10:13;;;;;;;238.20;214.87;;;;;;;-1.47;86.59;99876.69;5007691;28;20133;-71
2023/03/08 03:12:42;;;;;;;240.77;220.97;;;;;;;-1.49;86.36;99870.00;5005898;28;20507;-71
2023/03/08 03:15:12;;;;;;;259.15;235.57;;;;;;;-1.48;86.68;99871.63;4993271;28;20033;-72
2023/03/08 03:17:39;;;;;;;212.13;194.43;;;;;;;-1.47;86.22;99862.75;5009284;28;20386;-74
2023/03/08 03:20:07;;;;;;;229.47;210.63;;;;;;;-1.49;86.06;99875.25;5004336;28;20049;-72
2023/03/08 03:22:34;;;;;;;210.80;192.87;;;;;;;-1.53;86.21;99867.00;5018341;28;20473;-71
2023/03/08 03:25:00;;;;;;;197.03;181.43;;;;;;;-1.51;86.29;99866.78;4997125;28;20289;-73
2023/03/08 03:27:26;;;;;;;211.30;193.77;;;;;;;-1.52;86.12;99863.38;5000774;28;20038;-71
2023/03/08 03:29:54;;;;;;;191.80;176.93;;;;;;;-1.49;86.25;99865.59;4980039;28;20029;-71
2023/03/08 03:32:19;;;;;;;208.17;191.93;;;;;;;-1.52;86.29;99871.25;5028638;28;20367;-71
2023/03/08 03:34:45;;;;;;;208.00;190.67;;;;;;;-1.37;86.03;99870.94;4994453;28;20368;-73
2023/03/08 03:37:12;;;;;;;197.20;182.80;;;;;;;-1.37;85.91;99873.56;4984919;28;20433;-73
2023/03/08 03:39:40;;;;;;;189.10;174.00;;;;;;;-1.40;86.36;99868.75;5009667;28;20570;-72
2023/03/08 03:42:09;;;;;;;185.93;171.77;;;;;;;-1.38;86.10;99870.13;4993853;28;20143;-72
2023/03/08 03:44:37;;;;;;;164.20;151.83;;;;;;;-1.32;85.74;99865.88;5010627;28;20120;-73
2023/03/08 03:47:04;;;;;;;200.37;185.43;;;;;;;-1.33;85.57;99866.88;4990813;28;20052;-73
2023/03/08 03:49:30;;;;;;;187.77;172.80;;;;;;;-1.37;85.73;99863.88;5009033;28;20038;-73
2023/03/08 03:51:56;;;;;;;191.93;177.90;;;;;;;-1.39;85.59;99865.91;4999634;28;20052;-73
2023/03/08 03:54:37;;;;;;;206.37;190.53;;;;;;;-1.42;85.84;99874.22;5000526;28;20127;-73
2023/03/08 03:57:03;;;;;;;173.53;160.47;;;;;;;-1.44;85.62;99876.22;5011777;28;20613;-73
2023/03/08 03:59:34;;;;;;;187.30;172.87;;;;;;;-1.40;85.44;99874.00;4993418;28;20064;-72
2023/03/08 04:02:01;;;;;;;181.73;167.27;;;;;;;-1.46;85.51;99875.66;5027324;28;20044;-73
2023/03/08 04:04:54;;;;;;;205.53;188.07;;;;;;;-1.47;85.65;99878.50;5026287;28;20045;-72
2023/03/08 04:07:26;;;;;;;223.77;205.90;;;;;;;-1.55;86.04;99874.31;5011657;28;20061;-71
2023/03/08 04:09:55;;;;;;;204.43;188.82;;;;;;;-1.49;85.84;99883.97;5013904;28;20038;-72
2023/03/08 04:12:21;;;;;;;192.53;177.30;;;;;;;-1.48;86.06;99888.19;5011516;28;20911;-72
2023/03/08 04:14:47;;;;;;;186.90;172.13;;;;;;;-1.47;86.27;99881.94;4975552;28;20048;-72
2023/03/08 04:17:15;;;;;;;182.93;169.63;;;;;;;-1.35;85.81;99881.22;4993994;28;20054;-72
2023/03/08 04:19:47;;;;;;;184.47;171.17;;;;;;;-1.30;85.61;99879.56;4980675;28;20060;-74
2023/03/08 04:22:14;;;;;;;162.60;150.80;;;;;;;-1.24;85.39;99872.66;5010113;28;20041;-72
2023/03/08 04:24:45;;;;;;;182.70;169.57;;;;;;;-1.16;85.05;99875.03;5008697;28;20057;-71
2023/03/08 04:27:16;;;;;;;152.10;141.67;;;;;;;-1.23;85.47;99882.16;4993851;28;20033;-71
2023/03/08 04:29:42;;;;;;;182.07;168.90;;;;;;;-1.30;85.72;99884.03;5008591;28;20650;-72
2023/03/08 04:32:08;;;;;;;170.47;158.07;;;;;;;-1.31;85.71;99877.97;5031851;28;20048;-71
2023/03/08 04:34:55;;;;;;;152.37;141.33;;;;;;;-1.23;84.73;99876.91;5010100;28;20045;-71
2023/03/08 04:37:24;;;;;;;160.70;149.30;;;;;;;-1.17;85.34;99883.94;5007602;28;20041;-71
2023/03/08 04:39:54;;;;;;;181.13;167.07;;;;;;;-1.18;85.12;99874.44;5008160;28;20038;-72
2023/03/08 04:42:20;;;;;;;144.90;134.47;;;;;;;-1.19;85.29;99880.72;5010505;28;20078;-72
2023/03/08 04:44:46;;;;;;;213.80;197.17;;;;;;;-1.13;85.07;99885.94;5010397;28;20518;-71
2023/03/08 04:47:16;;;;;;;199.93;184.13;;;;;;;-1.16;84.99;99886.34;4994995;28;20627;-71
2023/03/08 04:49:44;;;;;;;210.50;192.87;;;;;;;-1.16;85.21;99880.28;5003020;28;20042;-71
2023/03/08 04:52:09;;;;;;;212.13;194.70;;;;;;;-1.07;84.69;99889.53;4997529;28;20092;-71
2023/03/08 04:54:37;;;;;;;217.40;200.90;;;;;;;-1.11;84.29;99885.72;4992968;28;20052;-72
2023/03/08 04:57:09;;;;;;;213.52;196.10;;;;;;;-1.14;84.62;99881.69;5013128;28;20486;-70
2023/03/08 04:59:36;;;;;;;212.40;195.13;;;;;;;-1.10;84.55;99889.94;5003493;28;20041;-73
2023/03/08 05:02:03;;;;;;;213.63;196.30;;;;;;;-1.11;84.86;99885.72;5011606;28;20035;-72
2023/03/08 05:04:31;;;;;;;216.20;198.47;;;;;;;-1.11;84.75;99889.16;5008497;28;20052;-71
2023/03/08 05:06:57;;;;;;;222.03;205.20;;;;;;;-1.10;84.69;99887.31;5010757;28;20403;-72
2023/03/08 05:09:26;;;;;;;211.37;194.07;;;;;;;-1.10;84.26;99889.94;4976270;28;20021;-71
2023/03/08 05:11:52;;;;;;;214.87;197.37;;;;;;;-1.08;84.20;99893.19;5009750;28;20037;-71
2023/03/08 05:14:20;;;;;;;216.03;197.90;;;;;;;-1.10;84.41;99889.94;4996257;28;20418;-71
2023/03/08 05:16:47;;;;;;;230.13;212.23;;;;;;;-1.06;84.46;99880.63;4994420;28;20057;-72
2023/03/08 05:19:12;;;;;;;223.27;206.03;;;;;;;-1.03;84.18;99880.19;5027706;28;20032;-72
2023/03/08 05:21:45;;;;;;;;;;;;;;;-0.99;84.46;99875.31;4988398;28;20033;-72
2023/03/08 05:24:11;;;;;;;212.40;194.40;;;;;;;-1.04;84.35;99878.59;5006006;28;19924;-71
2023/03/08 05:26:38;;;;;;;228.23;210.37;;;;;;;-0.99;84.53;99880.56;4991585;28;20046;-71
2023/03/08 05:29:05;;;;;;;228.20;209.80;;;;;;;-1.04;83.89;99860.19;4999738;28;20048;-72
2023/03/08 05:31:35;;;;;;;219.20;200.30;;;;;;;-1.10;83.51;99868.91;4985387;28;20499;-72
2023/03/08 05:34:03;;;;;;;217.07;198.73;;;;;;;-1.12;83.75;99866.50;4996099;28;20032;-72
2023/03/08 05:36:34;;;;;;;224.03;206.70;;;;;;;-1.09;83.72;99875.78;4990282;28;20077;-72
2023/03/08 05:39:00;;;;;;;212.83;194.90;;;;;;;-1.15;83.56;99866.16;4999956;28;20142;-72
2023/03/08 05:41:35;;;;;;;228.10;210.17;;;;;;;-1.18;83.34;99871.81;4966411;28;20041;-72
2023/03/08 05:44:01;;;;;;;213.87;195.97;;;;;;;-1.24;83.95;99872.66;5003354;28;20101;-72
2023/03/08 05:46:29;;;;;;;228.47;210.50;;;;;;;-1.12;83.81;99873.59;4979615;28;20172;-71
2023/03/08 05:48:54;;;;;;;227.47;209.00;;;;;;;-1.12;84.16;99870.97;5026700;28;20113;-73
2023/03/08 05:51:20;;;;;;;227.93;209.80;;;;;;;-1.18;84.49;99875.25;4992095;28;21075;-72
2023/03/08 05:53:46;;;;;;;227.67;209.40;;;;;;;-1.17;84.37;99883.94;5007602;28;20033;-72
2023/03/08 05:56:19;;;;;;;218.30;199.60;;;;;;;-1.05;84.43;99884.06;4996167;28;20125;-72
2023/03/08 05:59:01;;;;;;;224.93;207.40;;;;;;;-1.07;84.50;99884.28;5008266;28;20072;-71
2023/03/08 06:01:28;;;;;;;223.53;205.90;;;;;;;-1.02;84.27;99884.41;4997957;28;20155;-73
2023/03/08 06:04:02;;;;;;;216.27;198.07;;;;;;;-1.06;84.30;99885.88;4977762;28;20534;-72
2023/03/08 06:06:31;;;;;;;212.98;194.95;;;;;;;-1.08;83.80;99887.94;4979531;28;20050;-71
2023/03/08 06:08:59;;;;;;;229.70;211.53;;;;;;;-1.08;84.01;99895.81;5008551;28;20059;-72
2023/03/08 06:11:25;;;;;;;224.27;206.43;;;;;;;-1.08;83.96;99887.09;5005700;28;20372;-72
2023/03/08 06:13:54;;;;;;;225.43;207.37;;;;;;;-1.10;84.26;99888.13;4975105;28;20038;-72
2023/03/08 06:16:21;;;;;;;225.97;208.03;;;;;;;-1.07;83.99;99896.63;4978480;28;20133;-71
2023/03/08 06:18:47;;;;;;;227.27;208.97;;;;;;;-1.07;83.92;99888.72;5008727;28;20033;-72
2023/03/08 06:21:20;;;;;;;216.67;198.37;;;;;;;-1.07;83.86;99884.28;4990749;28;20060;-71
2023/03/08 06:23:50;;;;;;;217.93;199.07;;;;;;;-1.07;83.93;99888.72;5006989;28;20391;-71
2023/03/08 06:26:17;;;;;;;211.77;194.20;;;;;;;-1.04;83.39;99883.84;5011926;28;20040;-71
2023/03/08 06:28:44;;;;;;;223.67;205.33;;;;;;;-1.06;83.59;99879.81;4983672;28;20025;-71
2023/03/08 06:31:13;;;;;;;220.93;202.77;;;;;;;-1.06;83.88;99880.63;4991536;28;20512;-73
2023/03/08 06:33:39;;;;;;;208.40;191.40;;;;;;;-1.03;83.94;99880.19;5031407;28;20033;-72
2023/03/08 06:36:08;;;;;;;220.37;202.67;;;;;;;-1.00;83.69;99866.63;4992436;28;20033;-71
2023/03/08 06:38:35;;;;;;;224.07;206.20;;;;;;;-1.01;83.83;99870.28;5016629;28;20037;-71
2023/03/08 06:41:03;;;;;;;214.80;196.13;;;;;;;-0.94;83.38;99871.03;4994380;28;20052;-71
2023/03/08 06:43:30;;;;;;;228.53;210.30;;;;;;;-0.99;83.63;99865.59;5011159;28;20064;-71
2023/03/08 06:45:55;;;;;;;212.07;194.03;;;;;;;-0.95;83.54;99866.78;5013463;28;20037;-71
2023/03/08 06:48:21;;;;;;;223.73;205.90;;;;;;;-0.94;83.43;99872.84;4991570;28;20084;-71
2023/03/08 06:50:48;;;;;;;218.57;201.17;;;;;;;-0.85;83.52;99882.88;5009084;28;20137;-71
2023/03/08 06:53:14;;;;;;;214.17;196.33;;;;;;;-0.78;83.57;99882.00;4997801;28;20033;-71
2023/03/08 06:55:53;;;;;;;219.13;201.27;;;;;;;-0.82;82.88;99877.16;4996863;28;20052;-71
2023/03/08 06:58:19;;;;;;;224.13;206.47;;;;;;;-0.73;82.08;99880.34;5014316;28;20060;-71
2023/03/08 07:00:45;;;;;;;213.50;195.80;;;;;;;-0.73;82.36;99885.59;4996331;28;20064;-71
2023/03/08 07:03:13;;;;;;;210.57;192.80;;;;;;;-0.70;82.75;99890.41;4990706;28;20068;-72
2023/03/08 07:05:40;;;;;;;212.67;194.90;;;;;;;-0.67;82.04;99876.06;4987487;28;20038;-72
2023/03/08 07:08:06;;;;;;;222.93;205.10;;;;;;;-0.72;82.26;99881.16;4992736;28;20047;-72
2023/03/08 07:10:32;;;;;;;210.17;192.77;;;;;;;-0.70;82.52;99885.16;4993781;28;20117;-71
2023/03/08 07:12:58;;;;;;;218.50;201.00;;;;;;;-0.67;82.27;99886.56;5013868;28;20037;-74
2023/03/08 07:15:24;;;;;;;214.17;196.40;;;;;;;-0.68;82.51;99890.19;5012403;28;20399;-72
2023/03/08 07:17:54;;;;;;;220.80;202.67;;;;;;;-0.69;82.09;99892.03;5010516;28;20033;-71
2023/03/08 07:20:21;;;;;;;213.97;196.33;;;;;;;-0.54;82.01;99891.72;4990308;28;20038;-71
2023/03/08 07:22:47;;;;;;;220.30;202.40;;;;;;;-0.57;82.05;99895.56;4990309;28;20041;-72
2023/03/08 07:25:15;;;;;;;212.33;194.60;;;;;;;-0.52;82.00;99887.03;5009505;28;20760;-72
2023/03/08 07:27:41;;;;;;;213.57;195.93;;;;;;;-0.49;81.35;99889.19;5011001;28;20132;-72
2023/03/08 07:30:08;;;;;;;220.83;203.60;;;;;;;-0.50;81.63;99889.44;4989809;28;20661;-72
2023/03/08 07:32:34;;;;;;;221.70;204.18;;;;;;;-0.47;81.54;99883.75;5020564;28;20042;-71
2023/03/08 07:35:00;;;;;;;219.57;202.37;;;;;;;-0.31;80.71;99873.44;4984499;28;20065;-71
2023/03/08 07:37:25;;;;;;;211.90;194.60;;;;;;;-0.42;80.33;99876.78;5023266;28;20061;-71
2023/03/08 07:39:51;;;;;;;216.57;198.57;;;;;;;-0.33;80.58;99880.75;5006235;28;20042;-72
2023/03/08 07:42:17;;;;;;;211.83;194.83;;;;;;;-0.30;80.60;99885.56;5006674;28;20883;-71
2023/03/08 07:44:45;;;;;;;214.43;197.48;;;;;;;-0.30;80.74;99882.94;4989287;28;20037;-72
2023/03/08 07:47:11;;;;;;;213.43;196.45;;;;;;;-0.31;81.20;99889.22;4994234;28;20037;-72
2023/03/08 07:49:37;;;;;;;215.27;198.38;;;;;;;-0.21;80.89;99887.91;5024474;28;20108;-72
2023/03/08 07:52:03;;;;;;;208.02;191.68;;;;;;;-0.24;80.29;99893.63;5009713;28;20073;-71
2023/03/08 07:54:28;;;;;;;213.70;195.95;;;;;;;-0.25;80.02;99899.91;5010906;28;20042;-71
2023/03/08 07:56:54;;;;;;;215.80;198.75;;;;;;;-0.28;80.68;99895.88;5010004;28;20037;-71
2023/03/08 07:59:22;;;;;;;212.00;195.07;;;;;;;-0.11;79.46;99893.47;5004471;28;20033;-71
2023/03/08 08:01:48;;;;;;;213.25;196.50;;;;;;;-0.16;79.28;99895.94;5001754;28;20037;-72
2023/03/08 08:04:14;;;;;;;208.60;192.00;;;;;;;-0.23;79.47;99889.97;5020238;28;20048;-71
2023/03/08 08:06:40;;;;;;;208.02;190.82;;;;;;;-0.27;80.46;99889.59;5005361;28;20029;-71
2023/03/08 08:09:07;;;;;;;208.50;191.68;;;;;;;-0.22;79.79;99881.03;5014650;28;20021;-72
2023/03/08 08:11:33;;;;;;;207.98;191.27;;;;;;;-0.01;79.43;99888.47;5030479;28;20033;-71
2023/03/08 08:14:00;;;;;;;215.32;198.38;;;;;;;0.24;78.77;99880.47;4988283;28;20675;-72
2023/03/08 08:16:26;;;;;;;203.63;187.82;;;;;;;0.45;77.60;99879.19;5006130;28;20033;-71
2023/03/08 08:18:53;;;;;;;206.77;190.27;;;;;;;0.52;77.00;99877.25;4982314;28;20041;-71
2023/03/08 08:21:19;;;;;;;209.60;193.05;;;;;;;0.58;76.82;99868.44;4992669;28;20475;-72
2023/03/08 08:23:45;;;;;;;210.10;193.07;;;;;;;0.50;77.42;99864.31;5025948;28;20034;-71
2023/03/08 08:26:22;;;;;;;206.95;190.73;;;;;;;0.76;76.08;99863.13;5011590;28;20069;-71
2023/03/08 08:28:51;;;;;;;210.25;193.45;;;;;;;0.62;76.50;99874.09;5009367;28;20047;-72
2023/03/08 08:31:20;;;;;;;204.07;188.00;;;;;;;0.74;76.13;99864.34;4993648;28;20034;-72
2023/03/08 08:33:46;;;;;;;205.60;189.63;;;;;;;0.59;76.57;99859.50;5025437;28;20622;-71
2023/03/08 08:36:15;;;;;;;205.65;189.52;;;;;;;0.66;76.49;99868.13;5024442;28;20041;-71
2023/03/08 08:38:45;;;;;;;210.30;193.50;;;;;;;0.61;77.05;99873.28;5025874;28;20040;-71
2023/03/08 08:41:14;;;;;;;207.68;191.50;;;;;;;0.50;77.46;99874.06;4989077;28;20565;-71
2023/03/08 08:43:44;;;;;;;204.20;188.15;;;;;;;0.58;76.77;99876.34;5004388;28;20044;-69
2023/03/08 08:46:11;;;;;;;205.13;189.18;;;;;;;0.78;76.81;99882.13;5022273;28;20041;-70
2023/03/08 08:48:37;;;;;;;206.02;190.13;;;;;;;0.94;75.31;99879.88;4989502;28;20093;-71
2023/03/08 08:51:05;;;;;;;204.85;188.77;;;;;;;0.75;75.52;99879.97;5010482;28;20034;-71
2023/03/08 08:53:32;;;;;;;208.00;191.70;;;;;;;0.84;75.31;99869.88;5004138;28;20099;-70
2023/03/08 08:55:57;;;;;;;204.40;188.15;;;;;;;0.99;74.92;99878.16;5009782;28;20049;-70
2023/03/08 08:58:24;;;;;;;206.20;190.30;;;;;;;0.89;75.54;99877.94;5019158;28;20034;-72
2023/03/08 09:00:50;;;;;;;208.77;192.95;;;;;;;0.95;75.42;99879.66;5010026;28;20037;-71
2023/03/08 09:03:18;;;;;;;207.13;191.27;;;;;;;0.93;76.03;99883.53;4982086;28;20040;-71
2023/03/08 09:05:44;;;;;;;203.87;187.80;;;;;;;0.80;75.84;99864.25;5008451;28;20049;-70
2023/03/08 09:08:10;;;;;;;203.30;187.52;;;;;;;0.64;76.09;99880.72;4989065;28;20052;-71
2023/03/08 09:10:40;;;;;;;203.77;187.90;;;;;;;0.44;77.42;99885.47;5009161;28;20044;-71
2023/03/08 09:13:07;;;;;;;205.77;189.63;;;;;;;0.52;76.81;99883.31;5010645;28;20033;-71
2023/03/08 09:15:35;;;;;;;213.43;196.97;;;;;;;0.48;76.89;99887.44;5008875;28;20124;-71
2023/03/08 09:18:02;;;;;;;206.27;190.32;;;;;;;0.49;77.11;99878.50;4993062;28;20465;-70
2023/03/08 09:20:28;;;;;;;211.50;195.00;;;;;;;0.74;75.89;99875.69;4987574;28;20068;-71
2023/03/08 09:22:53;;;;;;;208.60;192.20;;;;;;;0.77;76.48;99866.56;4990517;28;20475;-72
2023/03/08 09:25:22;;;;;;;212.83;196.67;;;;;;;0.86;76.05;99869.66;5008505;28;20033;-71
2023/03/08 09:27:48;;;;;;;203.32;187.93;;;;;;;1.02;75.46;99869.00;5010402;28;20041;-70
2023/03/08 09:30:15;;;;;;;213.55;197.10;;;;;;;0.90;75.24;99866.34;4990618;28;20434;-70
2023/03/08 09:32:41;;;;;;;201.30;185.57;;;;;;;0.80;75.45;99866.88;4989536;28;20045;-71
2023/03/08 09:35:07;;;;;;;204.85;189.20;;;;;;;0.74;75.75;99870.44;5000232;28;20044;-71
2023/03/08 09:37:33;;;;;;;206.35;190.20;;;;;;;0.75;75.67;99866.00;4974942;28;20057;-71
2023/03/08 09:39:59;;;;;;;207.25;191.00;;;;;;;0.81;74.99;99860.63;5009957;28;20033;-71
2023/03/08 09:42:32;;;;;;;205.40;189.05;;;;;;;0.92;75.23;99871.38;5026969;28;20043;-73
2023/03/08 09:45:22;;;;;;;201.80;186.10;;;;;;;0.88;75.13;99860.50;5018792;28;20137;-71
2023/03/08 09:48:05;;;;;;;202.90;186.93;;;;;;;0.80;75.40;99858.97;5022722;28;20409;-72
2023/03/08 09:50:38;;;;;;;206.00;190.10;;;;;;;1.09;74.91;99861.78;5001238;28;20068;-71
2023/03/08 09:53:09;;;;;;;;;;;;;;;1.07;74.82;99866.47;5008095;28;20037;-71
2023/03/08 09:55:43;;;;;;;212.73;196.57;;;;;;;1.18;74.20;99863.03;5004129;28;19920;-72
2023/03/08 09:58:39;;;;;;;211.70;195.65;;;;;;;1.22;74.39;99855.47;5020709;28;20094;-71
2023/03/08 10:01:12;;;;;;;202.13;186.75;;;;;;;1.08;72.80;99846.97;5002944;28;20048;-71
2023/03/08 10:03:47;;;;;;;202.30;186.88;;;;;;;0.92;73.79;99850.28;5025932;28;20034;-71
2023/03/08 10:06:38;;;;;;;202.07;186.07;;;;;;;0.73;74.67;99836.41;5024036;28;20039;-71
2023/03/08 10:09:23;;;;;;;205.77;189.85;;;;;;;0.87;74.58;99837.00;5010768;28;20052;-71
2023/03/08 10:12:14;;;;;;;202.95;187.00;;;;;;;1.02;73.47;99840.00;4991908;28;20391;-72
2023/03/08 10:14:55;;;;;;;206.63;189.98;;;;;;;1.05;74.02;99834.25;5025977;28;20041;-71
2023/03/08 10:17:26;;;;;;;202.68;187.45;;;;;;;1.13;73.58;99833.09;5017420;28;20034;-71
2023/03/08 10:20:05;;;;;;;204.98;189.02;;;;;;;1.05;74.00;99835.06;5023951;28;20038;-73
2023/03/08 10:22:41;;;;;;;203.35;187.75;;;;;;;1.29;72.76;99827.97;5003779;28;20100;-72
2023/03/08 10:25:30;;;;;;;205.23;188.90;;;;;;;1.30;73.13;99823.47;5023212;28;20037;-71
2023/03/08 10:27:58;;;;;;;198.40;182.90;;;;;;;1.43;73.06;99827.72;5023761;28;20055;-72
2023/03/08 10:30:33;;;;;;;202.30;187.13;;;;;;;1.59;71.87;99821.72;4989254;28;20108;-72
2023/03/08 10:33:03;;;;;;;203.05;187.38;;;;;;;1.40;72.68;99825.53;4987210;28;20135;-70
2023/03/08 10:35:33;;;;;;;205.77;189.85;;;;;;;1.67;72.42;99821.34;5025380;28;20045;-72
2023/03/08 10:37:59;;;;;;;208.55;193.02;;;;;;;1.63;71.87;99814.94;4992618;28;20033;-71
2023/03/08 10:40:25;;;;;;;198.68;183.73;;;;;;;1.71;72.33;99813.78;5002436;28;20084;-71
2023/03/08 10:42:58;;;;;;;197.60;182.70;;;;;;;1.62;71.03;99808.84;5020516;28;20084;-71
2023/03/08 10:45:25;;;;;;;199.38;184.18;;;;;;;1.95;69.35;99806.56;4991180;28;20087;-72
2023/03/08 10:47:55;;;;;;;202.25;186.90;;;;;;;1.89;69.43;99803.81;5029998;28;20083;-72
2023/03/08 10:50:28;;;;;;;202.45;187.25;;;;;;;2.39;68.50;99810.28;5015458;28;20036;-70
2023/03/08 10:52:54;;;;;;;202.98;186.88;;;;;;;2.52;68.20;99795.97;4984482;28;20052;-71
2023/03/08 10:55:27;;;;;;;204.38;188.10;;;;;;;2.48;67.96;99795.63;4988048;28;20041;-72
2023/03/08 10:57:55;;;;;;;198.90;183.75;;;;;;;2.45;68.19;99796.91;4999504;28;20517;-71
2023/03/08 11:00:35;;;;;;;199.85;183.77;;;;;;;2.50;66.41;99798.03;5018503;28;20033;-72
2023/03/08 11:03:23;;;;;;;200.52;185.52;;;;;;;2.33;66.77;99793.53;5004060;28;20041;-71
2023/03/08 11:06:04;;;;;;;200.48;185.00;;;;;;;2.47;66.79;99786.91;5008751;28;20069;-71
2023/03/08 11:08:35;;;;;;;200.60;184.63;;;;;;;2.75;66.65;99790.50;5007460;28;20455;-71
2023/03/08 11:11:12;;;;;;;194.70;178.57;;;;;;;3.10;64.72;99777.00;5023849;28;20071;-71